createdAt,value
2019-01-18T00:00:54.636Z,99369.00
2019-01-18T00:03:24.314Z,99384.00
2019-01-18T00:05:53.761Z,99392.00
2019-01-18T00:08:23.202Z,99381.00
2019-01-18T00:10:52.730Z,99393.00
2019-01-18T00:13:22.215Z,99399.00
2019-01-18T00:15:51.656Z,99401.00
2019-01-18T00:18:21.093Z,99405.00
2019-01-18T00:20:50.577Z,99399.00
2019-01-18T00:23:20.035Z,99393.00
2019-01-18T00:25:49.513Z,99411.00
2019-01-18T00:28:18.957Z,99398.00
2019-01-18T00:30:48.391Z,99404.00
2019-01-18T00:33:17.867Z,99409.00
2019-01-18T00:35:47.327Z,99411.00
2019-01-18T00:38:16.759Z,99415.00
2019-01-18T00:40:46.235Z,99405.00
2019-01-18T00:43:15.710Z,99415.00
2019-01-18T00:45:45.224Z,99415.00
2019-01-18T00:48:14.756Z,99410.00
2019-01-18T00:50:44.259Z,99416.00
2019-01-18T00:53:13.708Z,99406.00
2019-01-18T00:55:43.145Z,99400.00
2019-01-18T00:58:12.617Z,99405.00
2019-01-18T01:00:42.172Z,99400.00
2019-01-18T01:03:11.682Z,99406.00
2019-01-18T01:05:41.292Z,99410.00
2019-01-18T01:08:10.871Z,99422.00
2019-01-18T01:10:40.318Z,99418.00
2019-01-18T01:13:09.767Z,99418.00
2019-01-18T01:15:39.373Z,99427.00
2019-01-18T01:18:09.384Z,99428.00
2019-01-18T01:20:38.877Z,99426.00
2019-01-18T01:23:08.392Z,99428.00
2019-01-18T01:25:37.879Z,99433.00
2019-01-18T01:28:07.316Z,99425.00
2019-01-18T01:30:36.771Z,99430.00
2019-01-18T01:33:06.480Z,99449.00
2019-01-18T01:35:35.919Z,99438.00
2019-01-18T01:38:05.763Z,99441.00
2019-01-18T01:40:35.210Z,99437.00
2019-01-18T01:43:04.772Z,99443.00
2019-01-18T01:45:34.455Z,99439.00
2019-01-18T01:48:03.964Z,99441.00
2019-01-18T01:50:33.463Z,99448.00
2019-01-18T01:53:02.951Z,99443.00
2019-01-18T01:55:32.394Z,99446.00
2019-01-18T01:58:01.846Z,99447.00
2019-01-18T02:00:31.329Z,99459.00
2019-01-18T02:03:00.769Z,99464.00
2019-01-18T02:05:30.303Z,99474.00
2019-01-18T02:07:59.796Z,99474.00
2019-01-18T02:10:29.239Z,99481.00
2019-01-18T02:13:00.550Z,99483.00
2019-01-18T02:15:30.056Z,99485.00
2019-01-18T02:17:59.500Z,99487.00
2019-01-18T02:20:28.971Z,99497.00
2019-01-18T02:22:58.406Z,99500.00
2019-01-18T02:25:27.882Z,99507.00
2019-01-18T02:27:57.324Z,99527.00
2019-01-18T02:30:28.703Z,99526.00
2019-01-18T02:32:58.174Z,99533.00
2019-01-18T02:35:27.619Z,99529.00
2019-01-18T02:37:57.094Z,99540.00
2019-01-18T02:40:26.539Z,99544.00
2019-01-18T02:42:55.992Z,99549.00
2019-01-18T02:45:25.764Z,99550.00
2019-01-18T02:47:55.202Z,99550.00
2019-01-18T02:50:24.677Z,99562.00
2019-01-18T02:52:54.123Z,99550.00
2019-01-18T02:55:28.774Z,99564.00
2019-01-18T02:57:54.786Z,99563.00
2019-01-18T03:00:24.973Z,99560.00
2019-01-18T03:02:54.591Z,99569.00
2019-01-18T03:05:26.443Z,99569.00
2019-01-18T03:07:55.915Z,99577.00
2019-01-18T03:10:29.184Z,99577.00
2019-01-18T03:12:58.638Z,99572.00
2019-01-18T03:15:28.822Z,99569.00
2019-01-18T03:17:58.310Z,99573.00
2019-01-18T03:20:27.758Z,99579.00
2019-01-18T03:22:57.199Z,99576.00
2019-01-18T03:25:27.783Z,99577.00
2019-01-18T03:27:57.241Z,99576.00
2019-01-18T03:30:26.688Z,99575.00
2019-01-18T03:32:57.081Z,99576.00
2019-01-18T03:35:26.533Z,99579.00
2019-01-18T03:37:55.964Z,99573.00
2019-01-18T03:40:25.697Z,99585.00
2019-01-18T03:42:55.093Z,99575.00
2019-01-18T03:45:24.679Z,99577.00
2019-01-18T03:47:54.138Z,99586.00
2019-01-18T03:50:26.032Z,99590.00
2019-01-18T03:52:55.548Z,99583.00
2019-01-18T03:55:25.389Z,99573.00
2019-01-18T03:57:54.846Z,99578.00
2019-01-18T04:00:29.102Z,99584.00
2019-01-18T04:02:58.555Z,99589.00
2019-01-18T04:05:28.065Z,99587.00
2019-01-18T04:07:57.538Z,99595.00
2019-01-18T04:10:27.218Z,99599.00
2019-01-18T04:12:56.678Z,99604.00
2019-01-18T04:15:26.213Z,99602.00
2019-01-18T04:17:55.659Z,99600.00
2019-01-18T04:20:25.614Z,99608.00
2019-01-18T04:22:55.086Z,99613.00
2019-01-18T04:25:26.215Z,99592.00
2019-01-18T04:27:55.663Z,99602.00
2019-01-18T04:30:32.991Z,99614.00
2019-01-18T04:32:56.606Z,99618.00
2019-01-18T04:35:26.085Z,99619.00
2019-01-18T04:37:55.629Z,99625.00
2019-01-18T04:40:27.719Z,99628.00
2019-01-18T04:42:58.064Z,99623.00
2019-01-18T04:45:27.509Z,99639.00
2019-01-18T04:47:56.997Z,99640.00
2019-01-18T04:50:29.233Z,99647.00
2019-01-18T04:52:58.784Z,99644.00
2019-01-18T04:55:28.225Z,99645.00
2019-01-18T04:57:57.699Z,99650.00
2019-01-18T05:00:30.829Z,99651.00
2019-01-18T05:03:00.473Z,99664.00
2019-01-18T05:05:29.977Z,99660.00
2019-01-18T05:07:59.462Z,99668.00
2019-01-18T05:10:30.055Z,99679.00
2019-01-18T05:12:59.699Z,99687.00
2019-01-18T05:15:32.171Z,99678.00
2019-01-18T05:18:01.620Z,99679.00
2019-01-18T05:20:31.114Z,99690.00
2019-01-18T05:23:00.560Z,99700.00
2019-01-18T05:25:30.000Z,99692.00
2019-01-18T05:27:59.455Z,99692.00
2019-01-18T05:30:30.744Z,99692.00
2019-01-18T05:33:00.178Z,99698.00
2019-01-18T05:35:29.651Z,99702.00
2019-01-18T05:37:59.258Z,99705.00
2019-01-18T05:40:28.748Z,99718.00
2019-01-18T05:42:58.185Z,99718.00
2019-01-18T05:45:27.667Z,99727.00
2019-01-18T05:47:57.172Z,99729.00
2019-01-18T05:50:28.998Z,99730.00
2019-01-18T05:53:00.627Z,99737.00
2019-01-18T05:55:30.073Z,99727.00
2019-01-18T05:57:59.583Z,99745.00
2019-01-18T06:00:35.855Z,99745.00
2019-01-18T06:03:06.365Z,99757.00
2019-01-18T06:05:39.283Z,99750.00
2019-01-18T06:08:08.840Z,99754.00
2019-01-18T06:10:38.550Z,99762.00
2019-01-18T06:13:08.000Z,99764.00
2019-01-18T06:15:37.445Z,99773.00
2019-01-18T06:18:07.462Z,99778.00
2019-01-18T06:20:36.907Z,99782.00
2019-01-18T06:23:06.346Z,99787.00
2019-01-18T06:25:35.840Z,99781.00
2019-01-18T06:28:05.421Z,99788.00
2019-01-18T06:30:34.854Z,99791.00
2019-01-18T06:33:04.461Z,99803.00
2019-01-18T06:35:33.985Z,99808.00
2019-01-18T06:38:03.549Z,99823.00
2019-01-18T06:40:32.994Z,99818.00
2019-01-18T06:43:02.511Z,99825.00
2019-01-18T06:45:32.626Z,99832.00
2019-01-18T06:48:02.067Z,99845.00
2019-01-18T06:50:31.622Z,99855.00
2019-01-18T06:53:01.095Z,99854.00
2019-01-18T06:55:30.573Z,99866.00
2019-01-18T06:58:00.029Z,99865.00
2019-01-18T07:00:31.616Z,99875.00
2019-01-18T07:03:01.453Z,99882.00
2019-01-18T07:05:30.980Z,99897.00
2019-01-18T07:08:00.457Z,99890.00
2019-01-18T07:10:29.971Z,99889.00
2019-01-18T07:12:59.517Z,99905.00
2019-01-18T07:15:29.059Z,99905.00
2019-01-18T07:17:58.592Z,99911.00
2019-01-18T07:20:28.068Z,99913.00
2019-01-18T07:22:57.597Z,99932.00
2019-01-18T07:25:29.584Z,99931.00
2019-01-18T07:27:59.082Z,99921.00
2019-01-18T07:30:32.362Z,99928.00
2019-01-18T07:33:01.844Z,99934.00
2019-01-18T07:35:31.564Z,99949.00
2019-01-18T07:38:01.105Z,99957.00
2019-01-18T07:40:30.561Z,99962.00
2019-01-18T07:43:00.036Z,99976.00
2019-01-18T07:45:31.636Z,99980.00
2019-01-18T07:48:01.175Z,100000.00
2019-01-18T07:50:30.706Z,100004.00
2019-01-18T07:53:00.195Z,100010.00
2019-01-18T07:55:29.659Z,100022.00
2019-01-18T07:57:59.111Z,100044.00
2019-01-18T08:00:30.772Z,100046.00
2019-01-18T08:03:00.491Z,100062.00
2019-01-18T08:05:30.645Z,100069.00
2019-01-18T08:08:00.416Z,100078.00
2019-01-18T08:10:29.874Z,100087.00
2019-01-18T08:12:59.391Z,100104.00
2019-01-18T08:15:29.574Z,100105.00
2019-01-18T08:17:59.096Z,100116.00
2019-01-18T08:20:29.919Z,100132.00
2019-01-18T08:22:59.799Z,100135.00
2019-01-18T08:25:29.438Z,100131.00
2019-01-18T08:27:59.298Z,100142.00
2019-01-18T08:30:30.695Z,100152.00
2019-01-18T08:33:00.209Z,100149.00
2019-01-18T08:35:29.938Z,100158.00
2019-01-18T08:37:59.455Z,100169.00
2019-01-18T08:40:32.804Z,100170.00
2019-01-18T08:43:02.326Z,100182.00
2019-01-18T08:45:47.550Z,100197.00
2019-01-18T08:48:17.001Z,100201.00
2019-01-18T08:50:46.447Z,100207.00
2019-01-18T08:53:15.917Z,100203.00
2019-01-18T08:55:45.412Z,100209.00
2019-01-18T08:58:14.870Z,100218.00
2019-01-18T09:00:44.315Z,100221.00
2019-01-18T09:03:13.792Z,100239.00
2019-01-18T09:05:43.242Z,100251.00
2019-01-18T09:08:12.867Z,100246.00
2019-01-18T09:10:42.425Z,100254.00
2019-01-18T09:13:11.897Z,100265.00
2019-01-18T09:15:41.359Z,100270.00
2019-01-18T09:18:10.824Z,100271.00
2019-01-18T09:20:40.344Z,100286.00
2019-01-18T09:23:09.800Z,100288.00
2019-01-18T09:25:39.242Z,100300.00
2019-01-18T09:28:08.720Z,100295.00
2019-01-18T09:30:38.429Z,100312.00
2019-01-18T09:33:08.256Z,100315.00
2019-01-18T09:35:38.165Z,100317.00
2019-01-18T09:38:09.684Z,100315.00
2019-01-18T09:40:39.192Z,100334.00
2019-01-18T09:43:08.709Z,100336.00
2019-01-18T09:45:38.269Z,100335.00
2019-01-18T09:48:08.155Z,100344.00
2019-01-18T09:50:37.675Z,100354.00
2019-01-18T09:53:09.021Z,100350.00
2019-01-18T09:55:38.465Z,100360.00
2019-01-18T09:58:08.033Z,100353.00
2019-01-18T10:00:39.189Z,100362.00
2019-01-18T10:03:08.653Z,100362.00
2019-01-18T10:05:38.269Z,100363.00
2019-01-18T10:08:07.883Z,100370.00
2019-01-18T10:10:37.516Z,100373.00
2019-01-18T10:13:07.043Z,100378.00
2019-01-18T10:15:40.924Z,100382.00
2019-01-18T10:18:10.441Z,100391.00
2019-01-18T10:20:39.882Z,100392.00
2019-01-18T10:23:09.363Z,100396.00
2019-01-18T10:25:38.853Z,100395.00
2019-01-18T10:28:08.310Z,100399.00
2019-01-18T10:30:37.780Z,100398.00
2019-01-18T10:33:07.399Z,100410.00
2019-01-18T10:35:36.901Z,100409.00
2019-01-18T10:38:06.682Z,100412.00
2019-01-18T10:40:36.200Z,100413.00
2019-01-18T10:43:06.072Z,100410.00
2019-01-18T10:45:35.501Z,100419.00
2019-01-18T10:48:05.531Z,100433.00
2019-01-18T10:50:35.024Z,100434.00
2019-01-18T10:53:04.779Z,100452.00
2019-01-18T10:55:34.226Z,100453.00
2019-01-18T10:58:03.718Z,100459.00
2019-01-18T11:00:34.850Z,100465.00
2019-01-18T11:03:04.570Z,100461.00
2019-01-18T11:05:34.132Z,100470.00
2019-01-18T11:08:03.579Z,100468.00
2019-01-18T11:10:33.026Z,100469.00
2019-01-18T11:13:02.521Z,100474.00
2019-01-18T11:15:35.969Z,100472.00
2019-01-18T11:18:03.450Z,100476.00
2019-01-18T11:20:46.689Z,100486.00
2019-01-18T11:23:16.300Z,100490.00
2019-01-18T11:25:45.743Z,100477.00
2019-01-18T11:28:15.244Z,100487.00
2019-01-18T11:30:44.691Z,100495.00
2019-01-18T11:33:14.132Z,100492.00
2019-01-18T11:35:43.676Z,100497.00
2019-01-18T11:38:13.123Z,100488.00
2019-01-18T11:40:42.609Z,100496.00
2019-01-18T11:43:12.045Z,100498.00
2019-01-18T11:45:41.490Z,100499.00
2019-01-18T11:48:10.934Z,100506.00
2019-01-18T11:50:40.636Z,100509.00
2019-01-18T11:53:10.075Z,100503.00
2019-01-18T11:55:39.526Z,100516.00
2019-01-18T11:58:09.339Z,100516.00
2019-01-18T12:00:38.783Z,100516.00
2019-01-18T12:03:08.539Z,100530.00
2019-01-18T12:05:38.155Z,100533.00
2019-01-18T12:08:07.845Z,100530.00
2019-01-18T12:10:37.334Z,100538.00
2019-01-18T12:13:07.181Z,100533.00
2019-01-18T12:15:36.624Z,100533.00
2019-01-18T12:18:06.234Z,100540.00
2019-01-18T12:20:36.455Z,100542.00
2019-01-18T12:23:06.152Z,100551.00
2019-01-18T12:25:35.710Z,100552.00
2019-01-18T12:28:05.362Z,100549.00
2019-01-18T12:30:35.444Z,100565.00
2019-01-18T12:33:05.299Z,100569.00
2019-01-18T12:35:34.862Z,100576.00
2019-01-18T12:38:04.639Z,100579.00
2019-01-18T12:40:34.162Z,100582.00
2019-01-18T12:43:03.717Z,100580.00
2019-01-18T12:45:33.163Z,100577.00
2019-01-18T12:48:02.613Z,100594.00
2019-01-18T12:50:34.819Z,100595.00
2019-01-18T12:53:04.772Z,100596.00
2019-01-18T12:55:34.361Z,100601.00
2019-01-18T12:58:03.863Z,100598.00
2019-01-18T13:00:33.808Z,100608.00
2019-01-18T13:03:03.594Z,100608.00
2019-01-18T13:05:40.014Z,100611.00
2019-01-18T13:08:10.207Z,100619.00
2019-01-18T13:10:39.651Z,100619.00
2019-01-18T13:13:09.447Z,100628.00
2019-01-18T13:16:04.793Z,100627.00
2019-01-18T13:18:34.291Z,100626.00
2019-01-18T13:21:03.998Z,100636.00
2019-01-18T13:23:33.443Z,100648.00
2019-01-18T13:26:02.933Z,100640.00
2019-01-18T13:28:32.528Z,100650.00
2019-01-18T13:31:01.979Z,100654.00
2019-01-18T13:33:31.549Z,100659.00
2019-01-18T13:36:01.002Z,100663.00
2019-01-18T13:38:30.446Z,100667.00
2019-01-18T13:40:59.933Z,100672.00
2019-01-18T13:43:29.376Z,100688.00
2019-01-18T13:45:58.814Z,100675.00
2019-01-18T13:48:28.301Z,100667.00
2019-01-18T13:50:57.757Z,100672.00
2019-01-18T13:53:27.209Z,100671.00
2019-01-18T13:55:56.700Z,100680.00
2019-01-18T13:58:26.155Z,100675.00
2019-01-18T14:00:55.601Z,100683.00
2019-01-18T14:03:25.099Z,100684.00
2019-01-18T14:05:54.546Z,100695.00
2019-01-18T14:08:24.260Z,100697.00
2019-01-18T14:10:53.759Z,100699.00
2019-01-18T14:13:23.280Z,100706.00
2019-01-18T14:15:52.974Z,100712.00
2019-01-18T14:18:22.462Z,100719.00
2019-01-18T14:20:51.916Z,100711.00
2019-01-18T14:23:21.373Z,100714.00
2019-01-18T14:25:50.852Z,100716.00
2019-01-18T14:28:20.372Z,100721.00
2019-01-18T14:30:50.001Z,100727.00
2019-01-18T14:33:19.535Z,100719.00
2019-01-18T14:35:48.985Z,100732.00
2019-01-18T14:38:24.952Z,100735.00
2019-01-18T14:40:49.650Z,100731.00
2019-01-18T14:43:19.154Z,100738.00
2019-01-18T14:45:48.562Z,100742.00
2019-01-18T14:48:18.055Z,100749.00
2019-01-18T14:50:47.574Z,100755.00
2019-01-18T14:53:17.022Z,100744.00
2019-01-18T14:55:47.378Z,100747.00
2019-01-18T14:58:17.053Z,100745.00
2019-01-18T15:00:46.668Z,100755.00
2019-01-18T15:03:16.486Z,100754.00
2019-01-18T15:05:45.969Z,100765.00
2019-01-18T15:08:15.469Z,100757.00
2019-01-18T15:10:44.986Z,100761.00
2019-01-18T15:13:15.451Z,100764.00
2019-01-18T15:15:44.935Z,100764.00
2019-01-18T15:18:14.452Z,100771.00
2019-01-18T15:20:44.275Z,100767.00
2019-01-18T15:23:13.952Z,100756.00
2019-01-18T15:25:43.413Z,100767.00
2019-01-18T15:28:12.859Z,100776.00
2019-01-18T15:30:42.391Z,100779.00
2019-01-18T15:33:11.875Z,100781.00
2019-01-18T15:35:41.355Z,100795.00
2019-01-18T15:38:10.809Z,100792.00
2019-01-18T15:40:43.709Z,100797.00
2019-01-18T15:43:15.031Z,100797.00
2019-01-18T15:45:46.293Z,100798.00
2019-01-18T15:48:15.772Z,100802.00
2019-01-18T15:50:45.259Z,100800.00
2019-01-18T15:53:14.826Z,100809.00
2019-01-18T15:55:44.446Z,100811.00
2019-01-18T15:58:13.923Z,100817.00
2019-01-18T16:00:44.166Z,100818.00
2019-01-18T16:03:16.124Z,100823.00
2019-01-18T16:05:45.047Z,100820.00
2019-01-18T16:08:14.809Z,100825.00
2019-01-18T16:10:44.262Z,100824.00
2019-01-18T16:13:13.717Z,100831.00
2019-01-18T16:15:47.846Z,100824.00
2019-01-18T16:18:22.286Z,100825.00
2019-01-18T16:20:51.743Z,100826.00
2019-01-18T16:23:21.797Z,100819.00
2019-01-18T16:25:51.916Z,100819.00
2019-01-18T16:28:21.370Z,100823.00
2019-01-18T16:30:50.866Z,100829.00
2019-01-18T16:33:23.568Z,100834.00
2019-01-18T16:35:51.924Z,100835.00
2019-01-18T16:38:21.420Z,100832.00
2019-01-18T16:40:50.869Z,100833.00
2019-01-18T16:43:30.539Z,100838.00
2019-01-18T16:46:00.058Z,100849.00
2019-01-18T16:48:29.518Z,100839.00
2019-01-18T16:50:59.007Z,100847.00
2019-01-18T16:53:28.456Z,100846.00
2019-01-18T16:55:58.020Z,100845.00
2019-01-18T16:58:27.662Z,100852.00
2019-01-18T17:01:01.121Z,100846.00
2019-01-18T17:03:30.851Z,100837.00
2019-01-18T17:06:00.315Z,100852.00
2019-01-18T17:08:29.937Z,100844.00
2019-01-18T17:10:59.386Z,100856.00
2019-01-18T17:13:28.978Z,100854.00
2019-01-18T17:15:58.433Z,100861.00
2019-01-18T17:18:27.955Z,100860.00
2019-01-18T17:20:57.447Z,100850.00
2019-01-18T17:23:26.970Z,100844.00
2019-01-18T17:26:07.803Z,100845.00
2019-01-18T17:28:37.291Z,100853.00
2019-01-18T17:31:06.943Z,100859.00
2019-01-18T17:33:38.596Z,100854.00
2019-01-18T17:36:16.665Z,100853.00
2019-01-18T17:39:19.809Z,100863.00
2019-01-18T17:42:11.265Z,100864.00
2019-01-18T17:45:00.313Z,100869.00
2019-01-18T17:47:58.567Z,100870.00
2019-01-18T17:50:49.072Z,100865.00
2019-01-18T17:53:38.074Z,100873.00
2019-01-18T17:56:18.326Z,100871.00
2019-01-18T17:59:03.951Z,100870.00
2019-01-18T18:02:01.999Z,100882.00
2019-01-18T18:04:42.075Z,100882.00
2019-01-18T18:07:46.494Z,100882.00
2019-01-18T18:10:47.390Z,100878.00
2019-01-18T18:13:36.681Z,100890.00
2019-01-18T18:16:13.248Z,100888.00
2019-01-18T18:19:09.826Z,100897.00
2019-01-18T18:22:10.230Z,100898.00
2019-01-18T18:24:52.945Z,100900.00
2019-01-18T18:27:44.671Z,100910.00
2019-01-18T18:30:34.040Z,100912.00
2019-01-18T18:33:35.573Z,100914.00
2019-01-18T18:36:42.586Z,100914.00
2019-01-18T18:39:33.264Z,100917.00
2019-01-18T18:42:09.981Z,100909.00
2019-01-18T18:44:56.037Z,100909.00
2019-01-18T18:47:49.791Z,100913.00
2019-01-18T18:51:09.441Z,100909.00
2019-01-18T18:53:45.991Z,100917.00
2019-01-18T18:56:35.163Z,100918.00
2019-01-18T18:59:42.558Z,100922.00
2019-01-18T19:02:43.244Z,100926.00
2019-01-18T19:05:27.354Z,100933.00
2019-01-18T19:08:16.263Z,100921.00
2019-01-18T19:10:56.070Z,100929.00
2019-01-18T19:13:56.928Z,100930.00
2019-01-18T19:16:50.074Z,100919.00
2019-01-18T19:19:46.276Z,100921.00
2019-01-18T19:22:42.490Z,100916.00
2019-01-18T19:25:16.606Z,100925.00
2019-01-18T19:28:19.379Z,100931.00
2019-01-18T19:31:02.003Z,100932.00
2019-01-18T19:33:48.225Z,100935.00
2019-01-18T19:36:46.222Z,100935.00
2019-01-18T19:39:25.927Z,100934.00
2019-01-18T19:42:02.595Z,100934.00
2019-01-18T19:44:48.697Z,100944.00
2019-01-18T19:47:31.631Z,100949.00
2019-01-18T19:50:23.869Z,100937.00
2019-01-18T19:53:26.143Z,100941.00
2019-01-18T19:56:38.931Z,100954.00
2019-01-18T19:59:21.454Z,100952.00
2019-01-18T20:02:09.679Z,100951.00
2019-01-18T20:04:52.679Z,100951.00
2019-01-18T20:07:35.546Z,100943.00
2019-01-18T20:10:21.738Z,100959.00
2019-01-18T20:13:01.525Z,100956.00
2019-01-18T20:15:40.768Z,100953.00
2019-01-18T20:18:17.531Z,100961.00
2019-01-18T20:21:06.654Z,100965.00
2019-01-18T20:24:10.463Z,100970.00
2019-01-18T20:26:50.442Z,100977.00
2019-01-18T20:29:51.554Z,100969.00
2019-01-18T20:32:48.352Z,100974.00
2019-01-18T20:35:51.769Z,100973.00
2019-01-18T20:39:08.410Z,100973.00
2019-01-18T20:42:23.314Z,100978.00
2019-01-18T20:44:59.971Z,100978.00
2019-01-18T20:47:46.200Z,100978.00
2019-01-18T20:50:39.875Z,100989.00
2019-01-18T20:53:22.728Z,100986.00
2019-01-18T20:56:34.351Z,100992.00
2019-01-18T20:59:29.227Z,100991.00
2019-01-18T21:02:14.990Z,100992.00
2019-01-18T21:05:21.830Z,100975.00
2019-01-18T21:08:07.767Z,100990.00
2019-01-18T21:10:53.156Z,100993.00
2019-01-18T21:13:27.254Z,100992.00
2019-01-18T21:16:04.367Z,100991.00
2019-01-18T21:18:59.434Z,100992.00
2019-01-18T21:21:47.779Z,100993.00
2019-01-18T21:24:52.190Z,101007.00
2019-01-18T21:27:45.940Z,100998.00
2019-01-18T21:30:34.376Z,101008.00
2019-01-18T21:33:20.058Z,101001.00
2019-01-18T21:35:56.808Z,101000.00
2019-01-18T21:38:51.846Z,100997.00
2019-01-18T21:41:35.034Z,100990.00
2019-01-18T21:44:44.803Z,100985.00
2019-01-18T21:47:45.921Z,100990.00
2019-01-18T21:50:25.242Z,100990.00
2019-01-18T21:53:08.529Z,100982.00
2019-01-18T21:56:03.466Z,100991.00
2019-01-18T21:58:43.313Z,100980.00
2019-01-18T22:01:38.340Z,100975.00
2019-01-18T22:04:20.635Z,100986.00
2019-01-18T22:07:11.356Z,100987.00
2019-01-18T22:09:48.238Z,100977.00
2019-01-18T22:12:31.269Z,100987.00
2019-01-18T22:15:37.220Z,100996.00
2019-01-18T22:18:29.454Z,100999.00
2019-01-18T22:21:36.103Z,101015.00
2019-01-18T22:24:38.793Z,101016.00
2019-01-18T22:27:21.529Z,101008.00
2019-01-18T22:30:00.703Z,101003.00
2019-01-18T22:32:34.814Z,101008.00
2019-01-18T22:35:17.233Z,101009.00
2019-01-18T22:38:03.202Z,101018.00
2019-01-18T22:41:02.703Z,101016.00
2019-01-18T22:43:45.434Z,101008.00
2019-01-18T22:46:37.289Z,101015.00
2019-01-18T22:49:35.354Z,101005.00
2019-01-18T22:52:24.356Z,101007.00
2019-01-18T22:55:36.323Z,101003.00
2019-01-18T22:58:31.195Z,101006.00
2019-01-18T23:01:30.831Z,100998.00
2019-01-18T23:04:13.460Z,101004.00
2019-01-18T23:07:05.418Z,101001.00
2019-01-18T23:09:51.272Z,100992.00
2019-01-18T23:12:39.845Z,100981.00
2019-01-18T23:15:46.825Z,100985.00
2019-01-18T23:18:35.345Z,100976.00
2019-01-18T23:21:39.243Z,100973.00
2019-01-18T23:24:21.562Z,100986.00
2019-01-18T23:27:21.475Z,100976.00
2019-01-18T23:30:04.133Z,100987.00
2019-01-18T23:32:47.181Z,100982.00
2019-01-18T23:35:39.269Z,100980.00
2019-01-18T23:38:28.325Z,100972.00
2019-01-18T23:41:33.477Z,100970.00
2019-01-18T23:44:22.332Z,100980.00
2019-01-18T23:47:08.769Z,100966.00
2019-01-18T23:49:51.665Z,100973.00
2019-01-18T23:52:40.759Z,100981.00
2019-01-18T23:55:49.235Z,100983.00
2019-01-18T23:58:50.668Z,100984.00
